createdAt,value
2023-02-05T00:00:33.280Z,13.35
2023-02-05T00:01:34.917Z,12.23
2023-02-05T00:02:36.340Z,12.57
2023-02-05T00:03:38.847Z,13.88
2023-02-05T00:04:40.459Z,12.52
2023-02-05T00:05:42.212Z,12.70
2023-02-05T00:06:44.774Z,12.45
2023-02-05T00:07:46.219Z,13.88
2023-02-05T00:08:47.722Z,14.35
2023-02-05T00:09:49.199Z,13.02
2023-02-05T00:10:52.439Z,14.68
2023-02-05T00:11:54.684Z,12.55
2023-02-05T00:13:57.466Z,13.95
2023-02-05T00:14:58.904Z,16.55
2023-02-05T00:16:00.319Z,14.25
2023-02-05T00:17:01.769Z,17.88
2023-02-05T00:18:03.920Z,14.65
2023-02-05T00:19:05.329Z,13.25
2023-02-05T00:20:07.344Z,12.20
2023-02-05T00:21:10.662Z,16.63
2023-02-05T00:22:12.110Z,13.25
2023-02-05T00:23:13.554Z,15.48
2023-02-05T00:24:15.068Z,16.15
2023-02-05T00:25:16.734Z,15.45
2023-02-05T00:26:18.984Z,14.68
2023-02-05T00:28:21.781Z,15.65
2023-02-05T00:29:23.175Z,18.35
2023-02-05T00:30:24.607Z,16.83
2023-02-05T00:31:26.305Z,14.10
2023-02-05T00:32:27.902Z,17.52
2023-02-05T00:33:29.354Z,15.88
2023-02-05T00:34:30.778Z,21.55
2023-02-05T00:35:32.615Z,14.43
2023-02-05T00:36:34.320Z,15.75
2023-02-05T00:37:35.861Z,16.48
2023-02-05T00:38:37.321Z,19.80
2023-02-05T00:39:38.885Z,14.95
2023-02-05T00:40:40.316Z,17.83
2023-02-05T00:41:41.837Z,17.67
2023-02-05T00:42:43.233Z,17.25
2023-02-05T00:43:44.780Z,16.13
2023-02-05T00:44:46.218Z,16.35
2023-02-05T00:45:47.881Z,17.02
2023-02-05T00:46:49.327Z,15.73
2023-02-05T00:47:50.799Z,15.45
2023-02-05T00:48:52.258Z,17.08
2023-02-05T00:49:53.674Z,16.35
2023-02-05T00:50:55.142Z,19.60
2023-02-05T00:51:56.584Z,16.17
2023-02-05T00:52:58.068Z,14.20
2023-02-05T00:53:59.539Z,14.98
2023-02-05T00:55:01.024Z,15.48
2023-02-05T00:56:02.820Z,13.85
2023-02-05T00:57:04.651Z,16.80
2023-02-05T00:58:06.120Z,13.20
2023-02-05T00:59:07.604Z,16.77
2023-02-05T01:00:09.878Z,17.50
2023-02-05T01:02:13.454Z,14.40
2023-02-05T01:03:14.893Z,15.15
2023-02-05T01:04:16.322Z,20.77
2023-02-05T01:05:17.746Z,14.85
2023-02-05T01:06:19.337Z,13.25
2023-02-05T01:07:20.799Z,15.80
2023-02-05T01:08:22.695Z,15.00
2023-02-05T01:09:24.209Z,18.75
2023-02-05T01:10:25.934Z,15.88
2023-02-05T01:11:27.404Z,14.70
2023-02-05T01:12:28.822Z,16.23
2023-02-05T01:13:30.267Z,18.92
2023-02-05T01:14:31.697Z,14.30
2023-02-05T01:15:33.610Z,15.95
2023-02-05T01:16:35.287Z,14.63
2023-02-05T01:17:36.731Z,15.73
2023-02-05T01:18:38.764Z,17.17
2023-02-05T01:19:40.282Z,17.65
2023-02-05T01:20:43.085Z,17.23
2023-02-05T01:21:44.560Z,14.18
2023-02-05T01:22:46.078Z,16.05
2023-02-05T01:23:47.491Z,14.88
2023-02-05T01:24:48.942Z,16.50
2023-02-05T01:25:50.502Z,14.77
2023-02-05T01:26:53.614Z,18.63
2023-02-05T01:27:55.097Z,18.90
2023-02-05T01:28:56.523Z,15.52
2023-02-05T01:29:58.023Z,15.00
2023-02-05T01:30:59.543Z,15.27
2023-02-05T01:32:01.013Z,16.70
2023-02-05T01:33:03.717Z,18.83
2023-02-05T01:34:05.237Z,17.98
2023-02-05T01:35:07.431Z,19.60
2023-02-05T01:37:10.882Z,21.67
2023-02-05T01:38:13.424Z,16.65
2023-02-05T01:39:15.017Z,16.90
2023-02-05T01:40:17.758Z,18.52
2023-02-05T01:41:19.277Z,17.42
2023-02-05T01:42:24.171Z,18.13
2023-02-05T01:43:25.875Z,16.65
2023-02-05T01:44:29.545Z,16.08
2023-02-05T01:46:08.398Z,14.23
2023-02-05T01:47:09.851Z,14.50
2023-02-05T01:48:11.270Z,17.63
2023-02-05T01:49:21.763Z,16.67
2023-02-05T01:50:37.729Z,14.02
2023-02-05T01:51:39.483Z,13.73
2023-02-05T01:52:40.927Z,16.98
2023-02-05T01:53:43.469Z,12.60
2023-02-05T01:54:49.029Z,20.95
2023-02-05T01:55:56.042Z,15.02
2023-02-05T01:57:03.909Z,13.82
2023-02-05T01:58:05.660Z,17.80
2023-02-05T01:59:36.273Z,15.43
2023-02-05T02:00:37.740Z,17.23
2023-02-05T02:01:40.889Z,13.77
2023-02-05T02:02:43.024Z,14.07
2023-02-05T02:03:45.496Z,13.05
2023-02-05T02:04:54.881Z,11.57
2023-02-05T02:05:56.408Z,13.50
2023-02-05T02:07:01.594Z,15.32
2023-02-05T02:08:03.378Z,12.52
2023-02-05T02:09:06.772Z,16.70
2023-02-05T02:10:10.808Z,13.20
2023-02-05T02:11:17.154Z,14.63
2023-02-05T02:12:23.618Z,12.40
2023-02-05T02:13:28.098Z,15.80
2023-02-05T02:14:33.013Z,12.18
2023-02-05T02:15:34.840Z,14.07
2023-02-05T02:16:38.988Z,14.35
2023-02-05T02:17:44.529Z,12.32
2023-02-05T02:18:46.374Z,17.00
2023-02-05T02:20:08.199Z,13.18
2023-02-05T02:21:38.069Z,14.25
2023-02-05T02:22:54.867Z,15.88
2023-02-05T02:24:02.177Z,13.13
2023-02-05T02:25:21.861Z,10.93
2023-02-05T02:26:52.564Z,15.07
2023-02-05T02:28:31.943Z,11.65
2023-02-05T02:29:48.899Z,11.63
2023-02-05T02:31:01.376Z,10.68
2023-02-05T02:32:14.342Z,12.60
2023-02-05T02:33:37.427Z,13.57
2023-02-05T02:34:51.082Z,11.57
2023-02-05T02:36:11.281Z,12.38
2023-02-05T02:37:20.900Z,12.05
2023-02-05T02:38:31.481Z,12.98
2023-02-05T02:39:37.412Z,11.88
2023-02-05T02:41:05.303Z,11.55
2023-02-05T02:42:14.771Z,11.50
2023-02-05T02:43:47.538Z,13.60
2023-02-05T02:44:55.325Z,12.30
2023-02-05T02:46:03.456Z,10.55
2023-02-05T02:47:12.006Z,13.43
2023-02-05T02:48:16.294Z,13.35
2023-02-05T02:49:25.629Z,11.25
2023-02-05T02:50:35.306Z,13.18
2023-02-05T02:51:39.530Z,14.48
2023-02-05T02:52:45.204Z,12.20
2023-02-05T02:53:49.633Z,12.50
2023-02-05T02:54:55.287Z,14.30
2023-02-05T02:55:58.346Z,12.27
2023-02-05T02:57:03.351Z,12.65
2023-02-05T02:58:08.635Z,15.90
2023-02-05T02:59:20.531Z,14.40
2023-02-05T03:00:26.908Z,12.38
2023-02-05T03:01:33.257Z,11.88
2023-02-05T03:02:37.580Z,12.55
2023-02-05T03:03:43.933Z,11.85
2023-02-05T03:04:59.861Z,13.23
2023-02-05T03:06:05.657Z,13.25
2023-02-05T03:07:18.933Z,17.08
2023-02-05T03:08:45.294Z,12.38
2023-02-05T03:11:01.750Z,13.38
2023-02-05T03:12:03.210Z,13.95
2023-02-05T03:13:04.753Z,13.88
2023-02-05T03:14:06.265Z,13.32
2023-02-05T03:15:08.939Z,14.55
2023-02-05T03:16:11.488Z,11.38
2023-02-05T03:17:18.577Z,11.30
2023-02-05T03:18:20.615Z,11.13
2023-02-05T03:19:22.183Z,15.43
2023-02-05T03:20:30.322Z,13.05
2023-02-05T03:21:41.761Z,12.55
2023-02-05T03:22:43.243Z,14.35
2023-02-05T03:23:45.292Z,12.93
2023-02-05T03:24:46.983Z,13.52
2023-02-05T03:25:48.797Z,17.98
2023-02-05T03:26:50.202Z,15.15
2023-02-05T03:27:53.668Z,12.45
2023-02-05T03:28:57.092Z,12.30
2023-02-05T03:29:58.674Z,11.25
2023-02-05T03:31:17.619Z,17.15
2023-02-05T03:32:48.926Z,13.27
2023-02-05T03:34:25.806Z,13.63
2023-02-05T03:35:46.935Z,11.93
2023-02-05T03:37:01.178Z,12.02
2023-02-05T03:38:33.885Z,10.93
2023-02-05T03:40:12.084Z,12.80
2023-02-05T03:41:58.037Z,10.30
2023-02-05T03:43:16.832Z,11.68
2023-02-05T03:44:55.322Z,10.35
2023-02-05T03:47:30.220Z,11.15
2023-02-05T03:49:08.951Z,11.07
2023-02-05T03:50:17.852Z,16.33
2023-02-05T03:51:19.215Z,11.32
2023-02-05T03:52:32.214Z,18.50
2023-02-05T03:53:43.821Z,13.43
2023-02-05T03:55:10.216Z,11.73
2023-02-05T03:58:56.299Z,11.43
2023-02-05T03:59:58.847Z,11.50
2023-02-05T04:01:01.102Z,14.10
2023-02-05T04:03:06.516Z,11.93
2023-02-05T04:04:08.000Z,10.20
2023-02-05T04:05:09.449Z,14.40
2023-02-05T04:06:11.155Z,13.05
2023-02-05T04:07:12.606Z,18.00
2023-02-05T04:08:14.086Z,11.85
2023-02-05T04:09:15.540Z,13.98
2023-02-05T04:10:17.975Z,16.92
2023-02-05T04:11:19.515Z,14.38
2023-02-05T04:12:21.081Z,13.80
2023-02-05T04:13:22.843Z,15.73
2023-02-05T04:14:24.358Z,13.65
2023-02-05T04:15:25.916Z,17.13
2023-02-05T04:16:27.440Z,14.75
2023-02-05T04:17:28.914Z,13.98
2023-02-05T04:18:30.349Z,13.50
2023-02-05T04:19:31.844Z,14.68
2023-02-05T04:20:33.242Z,14.52
2023-02-05T04:21:34.647Z,13.65
2023-02-05T04:22:36.128Z,12.93
2023-02-05T04:23:37.549Z,11.52
2023-02-05T04:24:39.152Z,12.27
2023-02-05T04:25:40.719Z,12.05
2023-02-05T04:26:42.142Z,10.85
2023-02-05T04:27:43.556Z,12.65
2023-02-05T04:28:45.027Z,12.05
2023-02-05T04:29:46.734Z,11.95
2023-02-05T04:30:48.179Z,13.23
2023-02-05T04:31:49.720Z,12.23
2023-02-05T04:32:51.272Z,15.32
2023-02-05T04:33:52.723Z,13.98
2023-02-05T04:34:54.381Z,12.82
2023-02-05T04:36:00.444Z,10.45
2023-02-05T04:37:02.381Z,9.88
2023-02-05T04:38:03.940Z,11.10
2023-02-05T04:39:05.377Z,12.40
2023-02-05T04:40:07.768Z,10.90
2023-02-05T04:41:09.250Z,15.02
2023-02-05T04:42:10.679Z,12.95
2023-02-05T04:43:12.165Z,12.02
2023-02-05T04:44:13.662Z,12.00
2023-02-05T04:45:15.234Z,13.13
2023-02-05T04:46:16.698Z,11.45
2023-02-05T04:47:18.177Z,12.93
2023-02-05T04:48:21.282Z,11.82
2023-02-05T04:49:22.774Z,12.90
2023-02-05T04:50:24.255Z,12.45
2023-02-05T04:51:25.652Z,15.25
2023-02-05T04:52:27.101Z,9.77
2023-02-05T04:53:28.512Z,11.50
2023-02-05T04:54:30.015Z,11.77
2023-02-05T04:55:32.402Z,9.05
2023-02-05T04:56:33.967Z,9.88
2023-02-05T04:57:35.584Z,11.63
2023-02-05T04:58:37.358Z,11.85
2023-02-05T04:59:38.985Z,10.63
2023-02-05T05:00:40.542Z,13.05
2023-02-05T05:01:42.070Z,11.68
2023-02-05T05:02:43.551Z,11.02
2023-02-05T05:03:45.410Z,12.52
2023-02-05T05:04:46.852Z,14.48
2023-02-05T05:05:49.484Z,13.05
2023-02-05T05:06:50.949Z,18.60
2023-02-05T05:07:52.432Z,17.73
2023-02-05T05:08:53.895Z,13.38
2023-02-05T05:09:55.302Z,12.43
2023-02-05T05:10:56.771Z,13.10
2023-02-05T05:11:58.253Z,12.68
2023-02-05T05:12:59.654Z,10.70
2023-02-05T05:14:01.058Z,10.57
2023-02-05T05:15:02.850Z,10.77
2023-02-05T05:16:05.305Z,9.70
2023-02-05T05:17:06.767Z,11.13
2023-02-05T05:18:08.227Z,10.52
2023-02-05T05:19:10.106Z,9.68
2023-02-05T05:20:11.671Z,11.82
2023-02-05T05:21:13.140Z,12.55
2023-02-05T05:22:14.554Z,12.77
2023-02-05T05:23:15.983Z,9.35
2023-02-05T05:24:17.358Z,10.63
2023-02-05T05:25:18.776Z,11.35
2023-02-05T05:26:20.198Z,12.98
2023-02-05T05:27:23.080Z,12.25
2023-02-05T05:28:24.562Z,11.70
2023-02-05T05:29:26.128Z,10.65
2023-02-05T05:30:27.580Z,12.77
2023-02-05T05:31:29.034Z,11.07
2023-02-05T05:32:30.481Z,10.88
2023-02-05T05:33:31.880Z,11.95
2023-02-05T05:34:33.333Z,11.25
2023-02-05T05:35:35.538Z,14.98
2023-02-05T05:36:39.825Z,12.38
2023-02-05T05:37:41.242Z,15.55
2023-02-05T05:38:44.283Z,11.38
2023-02-05T05:40:03.985Z,10.55
2023-02-05T05:41:24.286Z,13.93
2023-02-05T05:42:44.554Z,12.93
2023-02-05T05:43:48.632Z,11.68
2023-02-05T05:44:52.092Z,10.98
2023-02-05T05:45:53.569Z,12.65
2023-02-05T05:46:55.156Z,10.90
2023-02-05T05:47:56.580Z,10.90
2023-02-05T05:49:01.635Z,13.05
2023-02-05T05:50:03.505Z,9.88
2023-02-05T05:51:05.321Z,12.00
2023-02-05T05:52:06.713Z,12.63
2023-02-05T05:53:08.121Z,12.38
2023-02-05T05:54:09.534Z,11.05
2023-02-05T05:55:11.064Z,13.27
2023-02-05T05:56:12.748Z,10.85
2023-02-05T05:57:14.143Z,10.95
2023-02-05T05:58:16.059Z,11.82
2023-02-05T05:59:17.461Z,13.43
2023-02-05T06:00:19.108Z,9.60
2023-02-05T06:01:22.833Z,10.98
2023-02-05T06:02:24.316Z,11.65
2023-02-05T06:03:26.390Z,10.85
2023-02-05T06:04:28.184Z,11.00
2023-02-05T06:05:29.757Z,11.10
2023-02-05T06:06:31.375Z,15.85
2023-02-05T06:07:32.792Z,12.80
2023-02-05T06:08:34.698Z,12.23
2023-02-05T06:09:36.138Z,13.32
2023-02-05T06:10:37.586Z,15.82
2023-02-05T06:11:39.094Z,11.93
2023-02-05T06:12:40.538Z,14.18
2023-02-05T06:13:42.105Z,15.05
2023-02-05T06:14:43.515Z,13.10
2023-02-05T06:15:45.011Z,15.07
2023-02-05T06:16:46.490Z,13.38
2023-02-05T06:17:48.082Z,14.07
2023-02-05T06:18:49.500Z,18.65
2023-02-05T06:19:50.964Z,18.38
2023-02-05T06:20:52.403Z,13.25
2023-02-05T06:21:53.828Z,13.88
2023-02-05T06:22:55.235Z,14.18
2023-02-05T06:23:56.642Z,12.40
2023-02-05T06:24:58.093Z,12.27
2023-02-05T06:25:59.586Z,13.45
2023-02-05T06:27:01.537Z,16.67
2023-02-05T06:28:03.010Z,13.13
2023-02-05T06:29:04.455Z,16.70
2023-02-05T06:30:06.283Z,15.57
2023-02-05T06:31:07.903Z,18.48
2023-02-05T06:32:09.520Z,15.13
2023-02-05T06:33:12.651Z,16.15
2023-02-05T06:34:14.133Z,15.75
2023-02-05T06:35:15.580Z,17.58
2023-02-05T06:36:17.015Z,15.77
2023-02-05T06:37:18.488Z,13.05
2023-02-05T06:38:19.935Z,12.88
2023-02-05T06:39:23.196Z,14.15
2023-02-05T06:40:25.823Z,17.23
2023-02-05T06:41:27.256Z,16.63
2023-02-05T06:42:28.719Z,15.10
2023-02-05T06:43:30.200Z,15.50
2023-02-05T06:44:31.676Z,13.20
2023-02-05T06:45:33.392Z,16.73
2023-02-05T06:46:35.047Z,12.52
2023-02-05T06:47:36.682Z,15.48
2023-02-05T06:48:38.098Z,16.55
2023-02-05T06:49:39.485Z,13.27
2023-02-05T06:50:40.975Z,11.27
2023-02-05T06:51:42.424Z,11.90
2023-02-05T06:52:43.858Z,18.15
2023-02-05T06:53:45.255Z,15.65
2023-02-05T06:54:46.788Z,14.10
2023-02-05T06:55:48.247Z,13.63
2023-02-05T06:56:49.690Z,13.75
2023-02-05T06:57:51.178Z,15.68
2023-02-05T06:58:52.588Z,12.55
2023-02-05T06:59:53.991Z,12.60
2023-02-05T07:00:55.454Z,17.67
2023-02-05T07:01:56.900Z,15.95
2023-02-05T07:02:58.407Z,13.32
2023-02-05T07:03:59.854Z,14.05
2023-02-05T07:05:01.302Z,12.43
2023-02-05T07:06:04.736Z,12.93
2023-02-05T07:07:06.485Z,15.38
2023-02-05T07:08:07.900Z,11.52
2023-02-05T07:09:09.622Z,11.95
2023-02-05T07:10:11.150Z,16.52
2023-02-05T07:11:12.596Z,15.40
2023-02-05T07:12:14.091Z,12.80
2023-02-05T07:13:15.569Z,12.07
2023-02-05T07:14:17.123Z,11.40
2023-02-05T07:15:18.650Z,12.05
2023-02-05T07:16:20.115Z,11.55
2023-02-05T07:17:22.439Z,12.23
2023-02-05T07:18:24.438Z,14.40
2023-02-05T07:19:25.958Z,14.25
2023-02-05T07:20:27.488Z,12.43
2023-02-05T07:21:28.965Z,13.52
2023-02-05T07:22:30.392Z,12.82
2023-02-05T07:23:31.853Z,11.57
2023-02-05T07:24:33.260Z,14.90
2023-02-05T07:25:37.795Z,11.00
2023-02-05T07:26:40.755Z,10.80
2023-02-05T07:27:42.231Z,11.57
2023-02-05T07:28:44.519Z,10.65
2023-02-05T07:29:45.957Z,11.43
2023-02-05T07:30:48.454Z,12.95
2023-02-05T07:31:51.032Z,13.68
2023-02-05T07:32:52.508Z,15.70
2023-02-05T07:33:54.103Z,13.38
2023-02-05T07:34:55.572Z,14.32
2023-02-05T07:35:57.047Z,15.20
2023-02-05T07:36:58.460Z,11.65
2023-02-05T07:38:00.168Z,15.18
2023-02-05T07:39:01.869Z,14.80
2023-02-05T07:40:03.618Z,13.27
2023-02-05T07:41:06.247Z,9.60
2023-02-05T07:42:07.753Z,12.55
2023-02-05T07:43:09.198Z,11.43
2023-02-05T07:44:10.679Z,11.98
2023-02-05T07:45:12.590Z,13.63
2023-02-05T07:46:15.012Z,12.27
2023-02-05T07:47:16.458Z,18.77
2023-02-05T07:48:17.902Z,13.93
2023-02-05T07:49:19.325Z,13.73
2023-02-05T07:50:20.826Z,13.45
2023-02-05T07:51:24.552Z,12.48
2023-02-05T07:52:26.000Z,11.30
2023-02-05T07:53:27.764Z,12.50
2023-02-05T07:54:29.222Z,13.50
2023-02-05T07:55:30.643Z,13.35
2023-02-05T07:56:32.056Z,13.05
2023-02-05T07:57:33.490Z,11.20
2023-02-05T07:58:34.923Z,11.25
2023-02-05T07:59:36.365Z,11.93
2023-02-05T08:00:37.873Z,13.45
2023-02-05T08:01:39.405Z,9.90
2023-02-05T08:02:40.852Z,12.52
2023-02-05T08:03:42.552Z,13.27
2023-02-05T08:04:44.074Z,12.50
2023-02-05T08:05:45.501Z,10.60
2023-02-05T08:06:46.899Z,10.02
2023-02-05T08:07:48.666Z,9.88
2023-02-05T08:08:50.125Z,10.52
2023-02-05T08:09:51.586Z,13.48
2023-02-05T08:11:05.740Z,54.13
2023-02-05T08:12:07.201Z,84.82
2023-02-05T08:13:08.611Z,75.55
2023-02-05T08:14:10.061Z,14.63
2023-02-05T08:15:11.500Z,12.60
2023-02-05T08:16:15.569Z,13.18
2023-02-05T08:17:17.121Z,11.57
2023-02-05T08:18:18.591Z,14.93
2023-02-05T08:19:20.118Z,29.52
2023-02-05T08:20:22.215Z,18.95
2023-02-05T08:21:23.683Z,18.13
2023-02-05T08:22:25.468Z,19.45
2023-02-05T08:23:26.950Z,11.63
2023-02-05T08:24:28.951Z,15.30
2023-02-05T08:25:30.881Z,13.52
2023-02-05T08:26:32.314Z,13.07
2023-02-05T08:27:34.909Z,19.25
2023-02-05T08:28:36.350Z,18.25
2023-02-05T08:29:37.777Z,18.50
2023-02-05T08:30:40.061Z,17.88
2023-02-05T08:31:41.634Z,19.65
2023-02-05T08:32:47.902Z,18.23
2023-02-05T08:33:50.758Z,10.10
2023-02-05T08:34:52.261Z,12.07
2023-02-05T08:35:53.684Z,12.38
2023-02-05T08:36:57.143Z,11.00
2023-02-05T08:37:58.637Z,18.05
2023-02-05T08:39:00.114Z,21.10
2023-02-05T08:40:01.582Z,12.38
2023-02-05T08:41:14.808Z,16.08
2023-02-05T08:42:16.477Z,24.20
2023-02-05T08:43:17.927Z,17.35
2023-02-05T08:44:19.377Z,19.33
2023-02-05T08:45:20.828Z,14.77
2023-02-05T08:46:33.906Z,35.90
2023-02-05T08:47:46.040Z,18.65
2023-02-05T08:49:49.414Z,10.63
2023-02-05T08:50:50.932Z,11.95
2023-02-05T08:51:52.394Z,11.38
2023-02-05T08:52:53.828Z,11.48
2023-02-05T08:53:56.514Z,20.63
2023-02-05T08:54:58.332Z,13.63
2023-02-05T08:56:02.517Z,13.13
2023-02-05T08:57:04.078Z,12.52
2023-02-05T08:58:05.470Z,10.20
2023-02-05T08:59:08.321Z,10.70
2023-02-05T09:00:11.564Z,8.82
2023-02-05T09:01:16.029Z,16.30
2023-02-05T09:02:17.474Z,14.93
2023-02-05T09:03:19.210Z,18.63
2023-02-05T09:04:22.226Z,22.58
2023-02-05T09:05:23.705Z,10.50
2023-02-05T09:06:25.563Z,9.55
2023-02-05T09:07:26.956Z,16.25
2023-02-05T09:08:29.873Z,13.27
2023-02-05T09:09:34.912Z,17.20
2023-02-05T09:10:36.480Z,23.17
2023-02-05T09:11:38.128Z,15.55
2023-02-05T09:12:40.206Z,12.68
2023-02-05T09:13:41.661Z,11.45
2023-02-05T09:14:43.083Z,9.57
2023-02-05T09:15:48.509Z,10.98
2023-02-05T09:16:50.247Z,8.80
2023-02-05T09:17:51.710Z,8.57
2023-02-05T09:18:57.468Z,12.45
2023-02-05T09:19:58.928Z,17.67
2023-02-05T09:21:00.421Z,18.33
2023-02-05T09:22:02.149Z,17.42
2023-02-05T09:23:03.634Z,9.80
2023-02-05T09:24:05.155Z,13.60
2023-02-05T09:25:07.215Z,8.73
2023-02-05T09:26:09.337Z,16.73
2023-02-05T09:28:15.962Z,12.20
2023-02-05T09:29:17.462Z,19.60
2023-02-05T09:30:18.982Z,9.10
2023-02-05T09:31:21.822Z,10.45
2023-02-05T09:32:23.852Z,11.23
2023-02-05T09:33:25.261Z,12.70
2023-02-05T09:34:26.719Z,13.98
2023-02-05T09:35:28.203Z,12.07
2023-02-05T09:36:29.632Z,9.00
2023-02-05T09:37:31.031Z,9.48
2023-02-05T09:38:33.066Z,14.32
2023-02-05T09:40:18.524Z,8.25
2023-02-05T09:41:05.171Z,8.45
2023-02-05T09:42:31.965Z,8.68
2023-02-05T09:44:03.403Z,12.88
2023-02-05T09:45:31.031Z,12.27
2023-02-05T09:46:55.232Z,10.38
2023-02-05T09:48:23.817Z,9.18
2023-02-05T09:49:43.734Z,9.40
2023-02-05T09:50:45.235Z,10.23
2023-02-05T09:51:51.402Z,10.50
2023-02-05T09:52:56.803Z,10.00
2023-02-05T09:54:14.030Z,9.80
2023-02-05T09:55:26.122Z,12.75
2023-02-05T09:56:28.380Z,12.45
2023-02-05T09:57:38.638Z,13.02
2023-02-05T09:58:47.790Z,16.15
2023-02-05T09:59:49.231Z,15.63
2023-02-05T10:01:07.604Z,13.38
2023-02-05T10:02:35.106Z,17.25
2023-02-05T10:03:48.149Z,16.02
2023-02-05T10:04:52.918Z,14.73
2023-02-05T10:06:09.695Z,16.98
2023-02-05T10:07:24.745Z,12.95
2023-02-05T10:08:26.099Z,13.05
2023-02-05T10:09:54.819Z,12.85
2023-02-05T10:10:57.707Z,13.15
2023-02-05T10:12:20.524Z,10.27
2023-02-05T10:13:36.423Z,14.25
2023-02-05T10:15:06.954Z,12.43
2023-02-05T10:16:29.799Z,11.13
2023-02-05T10:18:03.248Z,9.75
2023-02-05T10:19:07.814Z,11.27
2023-02-05T10:20:28.109Z,11.07
2023-02-05T10:21:45.690Z,10.48
2023-02-05T10:22:58.248Z,9.68
2023-02-05T10:24:30.750Z,12.52
2023-02-05T10:25:50.636Z,11.57
2023-02-05T10:27:04.281Z,10.30
2023-02-05T10:28:11.982Z,11.10
2023-02-05T10:29:22.430Z,11.23
2023-02-05T10:31:02.364Z,12.75
2023-02-05T10:32:25.429Z,10.32
2023-02-05T10:33:38.979Z,10.07
2023-02-05T10:34:52.814Z,9.07
2023-02-05T10:36:04.064Z,9.35
2023-02-05T10:37:14.843Z,10.48
2023-02-05T10:38:23.713Z,10.30
2023-02-05T10:39:29.497Z,9.40
2023-02-05T10:40:39.211Z,9.85
2023-02-05T10:41:48.667Z,9.52
2023-02-05T10:43:05.116Z,10.40
2023-02-05T10:44:12.619Z,9.07
2023-02-05T10:45:34.732Z,9.68
2023-02-05T10:46:37.638Z,8.18
2023-02-05T10:47:53.540Z,8.43
2023-02-05T10:49:06.419Z,8.68
2023-02-05T10:50:18.563Z,6.97
2023-02-05T10:51:44.495Z,9.13
2023-02-05T10:52:46.008Z,7.30
2023-02-05T10:53:47.475Z,7.40
2023-02-05T10:54:49.384Z,5.63
2023-02-05T10:55:50.907Z,10.52
2023-02-05T10:56:52.676Z,12.63
2023-02-05T10:57:54.211Z,9.55
2023-02-05T10:59:00.193Z,13.48
2023-02-05T11:00:22.919Z,10.73
2023-02-05T11:01:38.833Z,6.80
2023-02-05T11:02:42.879Z,7.07
2023-02-05T11:04:26.574Z,9.65
2023-02-05T11:05:38.608Z,7.93
2023-02-05T11:06:44.318Z,7.50
2023-02-05T11:07:48.460Z,8.68
2023-02-05T11:08:49.939Z,8.48
2023-02-05T11:09:51.642Z,8.20
2023-02-05T11:10:53.889Z,9.55
2023-02-05T11:13:04.990Z,8.13
2023-02-05T11:14:07.728Z,7.80
2023-02-05T11:15:19.770Z,8.27
2023-02-05T11:16:22.205Z,6.88
2023-02-05T11:17:28.385Z,6.97
2023-02-05T11:18:35.738Z,9.85
2023-02-05T11:19:38.031Z,6.72
2023-02-05T11:20:39.975Z,12.48
2023-02-05T11:21:50.446Z,9.07
2023-02-05T11:23:16.409Z,11.82
2023-02-05T11:24:41.326Z,11.30
2023-02-05T11:25:57.715Z,6.97
2023-02-05T11:27:30.055Z,9.95
2023-02-05T11:28:33.630Z,7.70
2023-02-05T11:29:35.102Z,7.68
2023-02-05T11:30:50.376Z,7.60
2023-02-05T11:31:52.220Z,6.30
2023-02-05T11:32:54.418Z,12.15
2023-02-05T11:34:08.041Z,16.58
2023-02-05T11:35:22.184Z,9.85
2023-02-05T11:37:26.141Z,5.80
2023-02-05T11:38:57.152Z,6.32
2023-02-05T11:39:58.588Z,7.68
2023-02-05T11:41:04.290Z,11.80
2023-02-05T11:42:23.728Z,7.40
2023-02-05T11:43:34.560Z,6.45
2023-02-05T11:44:46.740Z,11.20
2023-02-05T11:45:51.268Z,7.38
2023-02-05T11:46:56.968Z,9.13
2023-02-05T11:48:02.370Z,7.75
2023-02-05T11:49:04.997Z,5.78
2023-02-05T11:50:21.995Z,8.00
2023-02-05T11:51:38.711Z,7.60
2023-02-05T11:52:40.179Z,11.95
2023-02-05T11:53:54.701Z,9.25
2023-02-05T11:54:56.689Z,10.45
2023-02-05T11:56:00.652Z,7.32
2023-02-05T11:57:24.580Z,7.10
2023-02-05T11:58:37.006Z,6.47
2023-02-05T11:59:39.911Z,6.00
2023-02-05T12:00:57.358Z,10.07
2023-02-05T12:02:23.704Z,5.65
2023-02-05T12:03:30.130Z,14.32
2023-02-05T12:04:46.214Z,6.28
2023-02-05T12:05:53.166Z,6.25
2023-02-05T12:07:11.508Z,27.83
2023-02-05T12:08:38.356Z,17.05
2023-02-05T12:09:40.413Z,10.27
2023-02-05T12:10:46.120Z,19.65
2023-02-05T12:12:06.740Z,28.30
2023-02-05T12:13:33.004Z,6.05
2023-02-05T12:16:07.728Z,12.13
2023-02-05T12:17:27.863Z,7.53
2023-02-05T12:18:48.908Z,9.25
2023-02-05T12:19:50.230Z,6.43
2023-02-05T12:21:04.030Z,6.72
2023-02-05T12:22:27.054Z,9.13
2023-02-05T12:23:56.758Z,8.88
2023-02-05T12:25:02.072Z,6.45
2023-02-05T12:26:03.503Z,9.13
2023-02-05T12:27:12.492Z,6.70
2023-02-05T12:28:30.221Z,10.07
2023-02-05T12:29:58.462Z,8.63
2023-02-05T12:31:04.038Z,5.47
2023-02-05T12:32:39.637Z,7.78
2023-02-05T12:33:51.003Z,5.32
2023-02-05T12:35:13.330Z,5.30
2023-02-05T12:36:17.782Z,6.38
2023-02-05T12:37:36.071Z,16.85
2023-02-05T12:38:53.568Z,19.50
2023-02-05T12:40:20.454Z,10.52
2023-02-05T12:41:29.318Z,8.02
2023-02-05T12:42:44.441Z,6.72
2023-02-05T12:43:48.425Z,9.25
2023-02-05T12:44:55.702Z,6.57
2023-02-05T12:46:26.707Z,4.55
2023-02-05T12:47:38.451Z,7.00
2023-02-05T12:48:47.406Z,6.47
2023-02-05T12:50:01.805Z,5.85
2023-02-05T12:51:13.050Z,10.32
2023-02-05T12:52:21.669Z,5.85
2023-02-05T12:53:53.582Z,5.18
2023-02-05T12:55:00.296Z,9.85
2023-02-05T12:56:10.840Z,6.07
2023-02-05T12:57:18.116Z,6.65
2023-02-05T12:58:20.875Z,6.07
2023-02-05T12:59:31.872Z,4.82
2023-02-05T13:00:57.098Z,6.00
2023-02-05T13:02:07.169Z,7.28
2023-02-05T13:03:30.325Z,4.90
2023-02-05T13:04:37.674Z,5.57
2023-02-05T13:05:51.651Z,7.18
2023-02-05T13:07:27.830Z,6.50
2023-02-05T13:08:48.948Z,7.22
2023-02-05T13:09:56.390Z,15.50
2023-02-05T13:11:07.450Z,7.53
2023-02-05T13:12:13.738Z,4.80
2023-02-05T13:13:21.289Z,5.45
2023-02-05T13:14:30.248Z,6.15
2023-02-05T13:15:40.352Z,6.45
2023-02-05T13:16:49.216Z,4.47
2023-02-05T13:18:05.330Z,13.75
2023-02-05T13:19:29.482Z,6.40
2023-02-05T13:20:57.943Z,13.07
2023-02-05T13:22:22.812Z,9.98
2023-02-05T13:23:42.742Z,13.65
2023-02-05T13:25:09.130Z,16.00
2023-02-05T13:26:24.289Z,8.25
2023-02-05T13:27:51.778Z,6.75
2023-02-05T13:29:09.969Z,10.20
2023-02-05T13:30:18.731Z,9.55
2023-02-05T13:31:31.600Z,10.40
2023-02-05T13:32:34.539Z,6.55
2023-02-05T13:33:36.050Z,10.00
2023-02-05T13:34:40.084Z,12.10
2023-02-05T13:36:03.592Z,14.20
2023-02-05T13:37:17.405Z,15.73
2023-02-05T13:38:56.558Z,10.38
2023-02-05T13:40:32.768Z,7.78
2023-02-05T13:41:56.168Z,7.00
2023-02-05T13:43:10.176Z,6.55
2023-02-05T13:44:30.040Z,6.05
2023-02-05T13:45:43.667Z,7.25
2023-02-05T13:46:56.741Z,6.35
2023-02-05T13:48:24.492Z,5.82
2023-02-05T13:49:25.873Z,6.78
2023-02-05T13:50:33.203Z,5.40
2023-02-05T13:52:12.284Z,16.23
2023-02-05T13:53:50.372Z,8.80
2023-02-05T13:55:03.886Z,6.70
2023-02-05T13:56:39.573Z,7.90
2023-02-05T13:58:02.366Z,7.22
2023-02-05T13:59:18.266Z,9.13
2023-02-05T14:00:20.000Z,5.25
2023-02-05T14:01:29.066Z,7.78
2023-02-05T14:02:39.551Z,18.25
2023-02-05T14:03:52.864Z,23.25
2023-02-05T14:04:54.784Z,22.35
2023-02-05T14:05:57.004Z,41.25
2023-02-05T14:08:03.367Z,9.60
2023-02-05T14:09:24.736Z,6.07
2023-02-05T14:10:28.903Z,6.65
2023-02-05T14:11:52.297Z,5.28
2023-02-05T14:13:09.144Z,5.70
2023-02-05T14:14:22.696Z,7.15
2023-02-05T14:15:35.445Z,6.47
2023-02-05T14:16:37.212Z,7.25
2023-02-05T14:17:38.596Z,5.30
2023-02-05T14:18:39.970Z,6.57
2023-02-05T14:19:55.985Z,6.30
2023-02-05T14:20:57.408Z,9.48
2023-02-05T14:22:00.531Z,8.27
2023-02-05T14:23:11.604Z,8.68
2023-02-05T14:24:44.317Z,12.57
2023-02-05T14:26:04.489Z,4.93
2023-02-05T14:28:46.458Z,7.15
2023-02-05T14:29:51.917Z,7.30
2023-02-05T14:30:59.377Z,9.00
2023-02-05T14:32:00.830Z,6.15
2023-02-05T14:33:03.489Z,6.30
2023-02-05T14:34:50.841Z,5.38
2023-02-05T14:36:15.409Z,5.90
2023-02-05T14:37:29.252Z,5.20
2023-02-05T14:38:35.062Z,7.10
2023-02-05T14:39:36.740Z,8.45
2023-02-05T14:40:38.853Z,6.30
2023-02-05T14:41:40.586Z,4.28
2023-02-05T14:42:42.881Z,6.80
2023-02-05T14:43:48.125Z,4.78
2023-02-05T14:44:57.819Z,8.18
2023-02-05T14:46:05.343Z,4.25
2023-02-05T14:47:22.918Z,7.25